Time;durP1;ratioP1;P1;durP2;ratioP2;P2;SDS_P1;SDS_P2;PMS_P1;PMS_P2;Temp;Humidity;BMP_temperature;BMP_pressure;BME280_temperature;BME280_humidity;BME280_pressure;Samples;Min_cycle;Max_cycle;Signal;HPM_P1;HPM_P2
2022/06/24 00:00:50;;;;;;;0.63;0.60;;;;;;;17.88;64.56;99455.00;4956143;29;20101;-68
2022/06/24 00:03:20;;;;;;;1.20;1.10;;;;;;;17.74;64.74;99459.78;4956290;29;20288;-68
2022/06/24 00:05:49;;;;;;;1.20;0.93;;;;;;;17.58;65.09;99453.47;4956069;29;20051;-68
2022/06/24 00:08:18;;;;;;;0.60;0.60;;;;;;;17.50;65.67;99451.09;4954935;29;20052;-68
2022/06/24 00:10:48;;;;;;;1.17;0.83;;;;;;;17.47;65.45;99460.69;4956027;29;20281;-68
2022/06/24 00:13:39;;;;;;;0.73;0.73;;;;;;;17.50;65.56;99455.41;4955913;29;20055;-68
2022/06/24 00:16:08;;;;;;;0.75;0.75;;;;;;;17.58;65.69;99451.72;4939046;29;20110;-68
2022/06/24 00:18:37;;;;;;;0.73;0.63;;;;;;;17.60;65.63;99457.69;4955814;29;20046;-68
2022/06/24 00:21:13;;;;;;;0.80;0.80;;;;;;;17.66;65.20;99451.47;4955875;29;20517;-68
2022/06/24 00:23:42;;;;;;;1.45;1.35;;;;;;;17.70;65.05;99448.75;4955771;29;20102;-68
2022/06/24 00:26:15;;;;;;;0.70;0.70;;;;;;;17.69;65.07;99448.78;4955742;29;20066;-68
2022/06/24 00:29:01;;;;;;;0.75;0.75;;;;;;;17.75;64.55;99451.16;4955708;29;20047;-68
2022/06/24 00:31:30;;;;;;;0.55;0.55;;;;;;;17.78;64.48;99453.66;4955788;29;20102;-69
2022/06/24 00:34:02;;;;;;;3.05;1.58;;;;;;;17.82;63.97;99452.66;4955551;29;20045;-68
2022/06/24 00:36:30;;;;;;;1.13;1.00;;;;;;;17.82;63.39;99447.47;4955645;29;20129;-69
2022/06/24 00:39:03;;;;;;;0.70;0.70;;;;;;;17.82;62.99;99452.66;4955867;29;20055;-69
2022/06/24 00:41:35;;;;;;;0.77;0.77;;;;;;;17.82;62.90;99450.06;4955889;29;20043;-68
2022/06/24 00:44:14;;;;;;;1.38;0.85;;;;;;;17.81;62.67;99441.47;4955922;29;20490;-68
2022/06/24 00:46:47;;;;;;;0.60;0.60;;;;;;;17.81;62.73;99446.63;4955577;29;20047;-68
2022/06/24 00:49:26;;;;;;;0.90;0.90;;;;;;;17.79;62.57;99442.41;4955466;29;20045;-68
2022/06/24 00:51:55;;;;;;;0.50;0.50;;;;;;;17.81;62.97;99450.94;4955496;29;20495;-69
2022/06/24 00:54:25;;;;;;;;;;;;;;;17.84;62.60;99450.84;4955699;29;20039;-69
2022/06/24 00:56:57;;;;;;;0.60;0.60;;;;;;;17.83;62.25;99454.31;4955735;29;19922;-68
2022/06/24 00:59:29;;;;;;;1.00;0.80;;;;;;;17.79;62.38;99447.56;4955412;29;20055;-68
2022/06/24 01:01:59;;;;;;;0.68;0.68;;;;;;;17.76;62.21;99443.34;4955624;28;20130;-68
2022/06/24 01:04:33;;;;;;;1.23;1.13;;;;;;;17.73;62.31;99450.38;4959940;29;20051;-68
2022/06/24 01:07:03;;;;;;;0.75;0.75;;;;;;;17.69;62.22;99438.44;4959333;29;20134;-68
2022/06/24 01:09:32;;;;;;;0.70;0.70;;;;;;;17.70;62.23;99432.41;4959055;29;20074;-68
2022/06/24 01:12:06;;;;;;;0.50;0.50;;;;;;;17.80;61.95;99444.13;4959533;29;20039;-69
2022/06/24 01:14:35;;;;;;;1.10;1.00;;;;;;;17.83;62.23;99446.56;4959051;29;20094;-69
2022/06/24 01:17:08;;;;;;;1.73;1.10;;;;;;;17.82;61.94;99438.00;4959429;29;20055;-69
2022/06/24 01:19:40;;;;;;;0.85;0.80;;;;;;;17.83;61.76;99433.66;4959116;29;20051;-68
2022/06/24 01:22:22;;;;;;;0.65;0.65;;;;;;;17.84;61.68;99435.34;4959076;29;20047;-68
2022/06/24 01:24:51;;;;;;;0.50;0.50;;;;;;;17.85;61.60;99442.22;4958975;29;20050;-68
2022/06/24 01:27:20;;;;;;;0.70;0.70;;;;;;;17.86;61.15;99439.56;4959251;29;20456;-69
2022/06/24 01:29:58;;;;;;;1.38;1.27;;;;;;;17.79;61.36;99426.91;4958822;29;20297;-69
2022/06/24 01:32:27;;;;;;;0.65;0.65;;;;;;;17.84;61.68;99436.22;4958845;29;20135;-69
2022/06/24 01:34:57;;;;;;;0.43;0.43;;;;;;;17.84;61.42;99430.19;4959063;29;20073;-69
2022/06/24 01:37:27;;;;;;;0.77;0.70;;;;;;;17.80;61.61;99431.22;4957881;29;20523;-69
2022/06/24 01:39:58;;;;;;;0.60;0.60;;;;;;;17.80;61.13;99428.63;4959040;29;20577;-69
2022/06/24 01:42:27;;;;;;;0.50;0.50;;;;;;;17.77;61.69;99437.31;4959023;29;20192;-68
2022/06/24 01:44:56;;;;;;;0.85;0.77;;;;;;;17.76;61.40;99434.75;4958448;29;20081;-70
2022/06/24 01:47:25;;;;;;;1.95;1.52;;;;;;;17.78;61.52;99440.75;4959180;29;20482;-68
2022/06/24 01:49:54;;;;;;;1.13;1.02;;;;;;;17.70;61.50;99433.25;4958482;29;20043;-69
2022/06/24 01:52:23;;;;;;;0.70;0.70;;;;;;;17.69;61.83;99438.44;4958358;29;20053;-69
2022/06/24 01:54:53;;;;;;;0.77;0.77;;;;;;;17.65;62.09;99439.44;4958396;29;20047;-69
2022/06/24 01:57:22;;;;;;;1.10;0.90;;;;;;;17.63;62.25;99436.09;4958478;29;20070;-69
2022/06/24 01:59:58;;;;;;;0.60;0.60;;;;;;;17.59;62.06;99434.50;4958328;29;20497;-69
2022/06/24 02:02:30;;;;;;;0.60;0.60;;;;;;;17.59;62.20;99434.50;4958334;29;20523;-69
2022/06/24 02:04:59;;;;;;;0.68;0.68;;;;;;;17.59;62.11;99434.50;4958365;29;20047;-69
2022/06/24 02:07:28;;;;;;;0.80;0.80;;;;;;;17.62;61.79;99424.91;4958413;29;20379;-68
2022/06/24 02:15:25;;;;;;;0.80;0.80;;;;;;;17.54;61.65;99432.06;4956850;28;20055;-69
2022/06/24 02:17:53;;;;;;;0.60;0.60;;;;;;;17.48;61.93;99431.38;4958034;29;20083;-69
2022/06/24 02:20:25;;;;;;;0.70;0.70;;;;;;;17.43;62.35;99434.97;4957992;29;20127;-69
2022/06/24 02:22:54;;;;;;;1.25;1.15;;;;;;;17.32;62.66;99423.31;4940872;29;20134;-69
2022/06/24 02:25:25;;;;;;;0.93;0.80;;;;;;;17.30;62.68;99428.50;4958165;29;20498;-69
2022/06/24 02:28:07;;;;;;;0.70;0.70;;;;;;;17.30;63.14;99428.50;4958090;29;20564;-69
2022/06/24 02:30:37;;;;;;;1.02;0.93;;;;;;;17.24;63.19;99420.97;4957814;29;20040;-69
2022/06/24 02:33:06;;;;;;;;;;;;;;;17.15;63.65;99426.44;4958147;29;20118;-69
2022/06/24 02:35:35;;;;;;;0.60;0.60;;;;;;;17.02;64.19;99421.69;4957716;29;20013;-68
2022/06/24 02:38:12;;;;;;;0.95;0.90;;;;;;;16.89;64.48;99431.53;4940567;29;20449;-69
2022/06/24 02:40:48;;;;;;;1.00;0.90;;;;;;;16.77;64.96;99431.91;4958039;29;20102;-69
2022/06/24 02:43:22;;;;;;;1.10;1.00;;;;;;;16.71;65.11;99421.78;4957639;29;20126;-69
2022/06/24 02:45:54;;;;;;;0.70;0.70;;;;;;;16.73;65.01;99422.56;4957576;29;20082;-68
2022/06/24 02:48:23;;;;;;;1.10;1.00;;;;;;;16.70;65.44;99430.38;4957451;29;20048;-69
2022/06/24 02:50:53;;;;;;;0.73;0.70;;;;;;;16.59;65.57;99422.13;4957388;29;20134;-69
2022/06/24 02:53:26;;;;;;;0.80;0.80;;;;;;;16.47;66.28;99423.31;4957744;29;20071;-69
2022/06/24 02:56:00;;;;;;;0.90;0.90;;;;;;;16.49;66.34;99410.34;4957779;29;20133;-69
2022/06/24 02:58:30;;;;;;;1.23;1.13;;;;;;;16.58;66.32;99425.59;4957290;29;20054;-69
2022/06/24 03:01:06;;;;;;;0.77;0.75;;;;;;;16.51;66.24;99424.03;4957609;29;20421;-68
2022/06/24 03:03:35;;;;;;;2.38;0.82;;;;;;;16.53;66.64;99430.06;4957240;29;20552;-69
2022/06/24 03:06:14;;;;;;;4.25;1.95;;;;;;;16.60;66.38;99429.81;4957772;29;20031;-69
2022/06/24 03:08:45;;;;;;;1.13;1.05;;;;;;;16.71;66.09;99427.78;4956995;29;20055;-69
2022/06/24 03:11:18;;;;;;;1.25;1.15;;;;;;;16.84;65.30;99427.41;4956999;29;20047;-69
2022/06/24 03:13:48;;;;;;;0.68;0.68;;;;;;;16.90;65.38;99432.38;4957060;29;20054;-69
2022/06/24 03:16:19;;;;;;;1.08;1.00;;;;;;;16.95;65.08;99436.50;4957027;29;20043;-69
2022/06/24 03:18:48;;;;;;;0.60;0.60;;;;;;;16.77;65.70;99437.06;4956825;29;20047;-69
2022/06/24 03:21:17;;;;;;;1.07;0.97;;;;;;;16.64;65.81;99446.03;4956905;29;20081;-69
2022/06/24 03:23:46;;;;;;;0.95;0.93;;;;;;;16.54;66.03;99442.03;4956870;29;20071;-68
2022/06/24 03:26:19;;;;;;;0.53;0.50;;;;;;;16.53;66.37;99438.59;4956438;28;20047;-69
2022/06/24 03:28:48;;;;;;;1.38;1.27;;;;;;;16.65;66.00;99440.00;4956706;29;20094;-69
2022/06/24 03:31:17;;;;;;;1.50;1.27;;;;;;;16.77;65.18;99435.31;4956519;29;20085;-68
2022/06/24 03:33:46;;;;;;;1.27;1.17;;;;;;;16.85;65.47;99435.09;4956674;29;20091;-69
2022/06/24 03:36:15;;;;;;;0.82;0.80;;;;;;;16.89;65.17;99436.69;4956575;29;20331;-69
2022/06/24 03:38:44;;;;;;;0.82;0.82;;;;;;;16.95;64.90;99441.66;4956794;29;20126;-68
2022/06/24 03:41:13;;;;;;;0.98;0.90;;;;;;;17.09;64.56;99439.50;4956531;29;20043;-69
2022/06/24 03:43:44;;;;;;;0.85;0.85;;;;;;;17.15;64.42;99436.75;4956477;29;20086;-69
2022/06/24 03:46:15;;;;;;;0.70;0.70;;;;;;;17.25;63.70;99435.53;4956731;29;20453;-69
2022/06/24 03:48:44;;;;;;;0.85;0.80;;;;;;;17.33;63.39;99438.72;4956327;29;20094;-69
2022/06/24 03:51:16;;;;;;;0.80;0.80;;;;;;;17.38;63.45;99442.00;4956447;29;20074;-68
2022/06/24 03:53:45;;;;;;;1.85;1.60;;;;;;;17.41;63.46;99435.91;4956320;29;20052;-69
2022/06/24 03:56:14;;;;;;;1.13;1.00;;;;;;;17.47;63.13;99440.03;4956241;29;20040;-68
2022/06/24 03:58:44;;;;;;;0.75;0.75;;;;;;;17.56;63.09;99442.34;4956080;29;20086;-69
2022/06/24 04:01:13;;;;;;;0.50;0.50;;;;;;;17.56;63.40;99432.03;4956425;29;20137;-69
2022/06/24 04:03:42;;;;;;;1.03;0.93;;;;;;;17.57;63.50;99444.00;4956103;29;20046;-69
2022/06/24 04:06:11;;;;;;;0.65;0.65;;;;;;;17.58;63.60;99443.97;4956071;29;20321;-68
2022/06/24 04:08:40;;;;;;;1.53;1.10;;;;;;;17.58;63.60;99445.72;4955857;29;20050;-68
2022/06/24 04:11:17;;;;;;;0.70;0.70;;;;;;;17.61;63.87;99437.88;4955936;29;20090;-68
2022/06/24 04:13:47;;;;;;;0.60;0.60;;;;;;;17.75;63.48;99439.09;4956297;29;20053;-69
2022/06/24 04:16:16;;;;;;;0.73;0.70;;;;;;;17.91;63.29;99442.00;4956281;29;20138;-69
2022/06/24 04:18:50;;;;;;;0.73;0.73;;;;;;;18.11;62.39;99439.59;4955845;29;20502;-69
2022/06/24 04:21:20;;;;;;;1.20;1.10;;;;;;;18.28;61.97;99442.41;4956018;29;20441;-69
2022/06/24 04:23:52;;;;;;;0.70;0.70;;;;;;;18.46;61.38;99434.00;4955773;29;20057;-69
2022/06/24 04:26:22;;;;;;;1.23;1.02;;;;;;;18.57;61.39;99434.44;4956081;29;20402;-69
2022/06/24 04:28:53;;;;;;;0.70;0.70;;;;;;;18.76;61.09;99433.78;4956079;29;20066;-69
2022/06/24 04:31:25;;;;;;;0.75;0.75;;;;;;;18.91;60.88;99425.44;4955923;29;20374;-69
2022/06/24 04:33:54;;;;;;;0.80;0.80;;;;;;;19.00;60.60;99432.84;4956046;29;20069;-69
2022/06/24 04:36:22;;;;;;;1.20;1.02;;;;;;;19.16;60.25;99429.59;4955638;28;20556;-69
2022/06/24 04:38:54;;;;;;;1.03;0.93;;;;;;;19.32;60.32;99433.25;4955716;29;20040;-69
2022/06/24 04:41:26;;;;;;;0.73;0.73;;;;;;;19.46;59.81;99447.44;4955965;29;20102;-69
2022/06/24 04:43:57;;;;;;;1.05;0.98;;;;;;;19.63;59.17;99430.28;4955876;29;20122;-69
2022/06/24 04:46:26;;;;;;;0.73;0.73;;;;;;;19.92;58.97;99442.84;4955500;29;20070;-69
2022/06/24 04:48:55;;;;;;;1.10;1.00;;;;;;;20.12;58.32;99433.38;4955543;29;20039;-69
2022/06/24 04:51:28;;;;;;;1.63;1.10;;;;;;;20.28;57.06;99435.28;4955232;29;20039;-69
2022/06/24 04:53:58;;;;;;;1.13;0.93;;;;;;;20.42;56.16;99432.91;4955784;29;20489;-69
2022/06/24 04:56:27;;;;;;;0.60;0.60;;;;;;;20.57;55.35;99431.38;4955431;29;20081;-68
2022/06/24 04:59:05;;;;;;;0.93;0.70;;;;;;;20.72;54.70;99435.88;4955699;29;20501;-68
2022/06/24 05:01:34;;;;;;;0.60;0.60;;;;;;;20.86;54.40;99433.47;4955396;29;20397;-67
2022/06/24 05:04:06;;;;;;;0.60;0.60;;;;;;;20.95;54.00;99435.66;4955396;29;20042;-68
2022/06/24 05:06:35;;;;;;;2.00;1.23;;;;;;;21.07;53.76;99436.84;4955368;29;20047;-67
2022/06/24 05:09:04;;;;;;;0.83;0.83;;;;;;;21.24;53.60;99440.34;4955276;29;20098;-68
2022/06/24 05:11:36;;;;;;;1.15;1.05;;;;;;;21.38;53.31;99444.03;4955372;29;20061;-68
2022/06/24 05:14:09;;;;;;;3.33;1.27;;;;;;;21.56;52.94;99435.34;4955262;29;20059;-68
2022/06/24 05:16:37;;;;;;;0.68;0.68;;;;;;;21.70;52.56;99438.94;4955592;29;20134;-68
2022/06/24 05:19:08;;;;;;;0.85;0.85;;;;;;;21.79;52.02;99448.00;4955168;29;20036;-67
2022/06/24 05:21:37;;;;;;;1.00;0.77;;;;;;;21.88;51.38;99438.03;4955093;29;20055;-67
2022/06/24 05:24:07;;;;;;;1.30;1.08;;;;;;;21.95;51.09;99439.41;4955165;29;20074;-68
2022/06/24 05:26:41;;;;;;;1.40;1.30;;;;;;;22.12;50.52;99441.16;4955537;29;20055;-67
2022/06/24 05:29:20;;;;;;;0.75;0.73;;;;;;;22.22;51.12;99437.16;4955261;29;20126;-67
2022/06/24 05:31:49;;;;;;;1.15;0.80;;;;;;;22.37;50.61;99433.75;4955291;29;20043;-67
2022/06/24 05:34:19;;;;;;;0.82;0.82;;;;;;;22.50;49.93;99432.19;4955070;29;20083;-68
2022/06/24 05:36:47;;;;;;;7.47;1.17;;;;;;;22.64;49.44;99432.31;4953906;29;20158;-67
2022/06/24 05:39:25;;;;;;;0.60;0.60;;;;;;;22.79;49.01;99437.63;4955383;29;20039;-67
2022/06/24 05:42:09;;;;;;;1.23;1.00;;;;;;;22.93;48.59;99442.91;4954978;29;20134;-67
2022/06/24 05:44:40;;;;;;;1.85;1.25;;;;;;;23.04;47.99;99437.94;4955040;29;20055;-67
2022/06/24 05:47:08;;;;;;;0.98;0.88;;;;;;;23.09;47.70;99431.56;4954995;29;20051;-67
2022/06/24 05:49:46;;;;;;;0.50;0.50;;;;;;;23.18;47.27;99435.41;4957685;28;20133;-68
2022/06/24 05:52:15;;;;;;;1.42;0.77;;;;;;;23.28;47.10;99441.78;4958176;29;20044;-67
2022/06/24 05:57:27;;;;;;;0.68;0.68;;;;;;;23.54;46.67;99459.41;4956419;29;20063;-67
2022/06/24 06:00:00;;;;;;;1.00;0.95;;;;;;;23.62;46.46;99459.81;4958459;29;20054;-68
2022/06/24 06:02:31;;;;;;;0.55;0.55;;;;;;;23.75;46.28;99452.16;4958362;29;20043;-67
2022/06/24 06:05:00;;;;;;;;;;;;;;;23.80;46.31;99450.94;4959009;29;20043;-67
2022/06/24 06:07:30;;;;;;;0.60;0.60;;;;;;;23.90;46.04;99457.28;4958122;29;19969;-67
2022/06/24 06:10:00;;;;;;;0.73;0.73;;;;;;;23.87;45.30;99446.22;4957831;29;20063;-67
2022/06/24 06:12:28;;;;;;;0.75;0.60;;;;;;;24.00;45.36;99441.94;4957793;29;20575;-67
2022/06/24 06:14:59;;;;;;;1.02;0.93;;;;;;;24.11;44.96;99459.59;4958018;29;20553;-67
2022/06/24 06:17:28;;;;;;;0.85;0.63;;;;;;;24.22;44.90;99451.97;4957741;29;20044;-67
2022/06/24 06:19:57;;;;;;;0.60;0.60;;;;;;;24.35;45.19;99452.91;4958521;29;20053;-67
2022/06/24 06:22:26;;;;;;;0.55;0.55;;;;;;;24.57;44.78;99450.69;4957831;29;20050;-67
2022/06/24 06:24:56;;;;;;;0.95;0.90;;;;;;;24.67;43.92;99457.00;4957857;29;20047;-67
2022/06/24 06:27:26;;;;;;;0.52;0.52;;;;;;;24.75;43.53;99454.75;4957846;29;20044;-67
2022/06/24 06:29:55;;;;;;;0.60;0.60;;;;;;;24.87;42.73;99455.78;4957788;29;20134;-67
2022/06/24 06:32:25;;;;;;;0.50;0.50;;;;;;;24.98;42.65;99448.94;4965513;28;20114;-68
2022/06/24 06:35:01;;;;;;;0.90;0.90;;;;;;;25.07;42.19;99445.78;4958569;28;20134;-67
2022/06/24 06:37:32;;;;;;;0.63;0.60;;;;;;;25.16;41.38;99447.78;4957659;28;20051;-67
2022/06/24 06:40:02;;;;;;;2.92;1.30;;;;;;;25.26;40.68;99448.88;4957962;28;20050;-67
2022/06/24 06:42:30;;;;;;;;;;;;;;;25.44;40.79;99452.09;4957986;28;20049;-68
2022/06/24 06:45:00;;;;;;;0.68;0.68;;;;;;;25.60;40.35;99451.94;4957852;29;19928;-67
2022/06/24 06:47:31;;;;;;;0.95;0.70;;;;;;;25.69;39.67;99446.09;4957460;28;20088;-67
2022/06/24 06:50:09;;;;;;;0.80;0.80;;;;;;;25.70;39.51;99443.38;4957799;29;20051;-68
2022/06/24 06:52:40;;;;;;;1.02;0.80;;;;;;;25.81;39.58;99434.84;4957415;28;20058;-67
2022/06/24 06:55:09;;;;;;;0.68;0.68;;;;;;;26.10;39.30;99440.72;4957306;29;20580;-67
2022/06/24 06:57:38;;;;;;;0.98;0.88;;;;;;;26.10;39.32;99425.84;4957366;28;20070;-68
2022/06/24 07:00:09;;;;;;;0.95;0.85;;;;;;;26.03;39.10;99437.69;4956768;28;20098;-68
2022/06/24 07:02:40;;;;;;;0.75;0.75;;;;;;;26.13;39.45;99433.50;4957531;29;20102;-68
2022/06/24 07:05:26;;;;;;;0.63;0.57;;;;;;;26.33;38.84;99426.91;4957836;28;20075;-68
2022/06/24 07:07:58;;;;;;;1.55;0.50;;;;;;;26.42;38.49;99421.03;4957150;28;20142;-68
2022/06/24 07:10:40;;;;;;;2.95;1.27;;;;;;;26.45;38.68;99420.81;4956887;28;20048;-68
2022/06/24 07:13:10;;;;;;;0.60;0.60;;;;;;;26.49;38.36;99417.88;4957221;29;20082;-67
2022/06/24 07:15:39;;;;;;;0.80;0.80;;;;;;;26.51;38.26;99426.47;4956976;28;20051;-68
2022/06/24 07:18:09;;;;;;;0.80;0.80;;;;;;;26.63;38.39;99423.94;4956889;29;20043;-70
2022/06/24 07:20:38;;;;;;;0.57;0.57;;;;;;;26.67;37.63;99420.16;4957379;28;20130;-69
2022/06/24 07:23:07;;;;;;;0.63;0.60;;;;;;;26.63;37.35;99423.94;4957178;28;20493;-69
2022/06/24 07:25:45;;;;;;;0.50;0.50;;;;;;;26.68;36.25;99420.06;4956677;29;20039;-72
2022/06/24 07:28:14;;;;;;;0.60;0.60;;;;;;;26.63;36.07;99415.13;4956809;28;20047;-69
2022/06/24 07:30:43;;;;;;;0.50;0.50;;;;;;;26.61;35.81;99417.00;4956628;29;20062;-69
2022/06/24 07:33:13;;;;;;;1.38;1.17;;;;;;;26.80;36.21;99413.13;4956495;29;20043;-69
2022/06/24 07:35:42;;;;;;;0.55;0.55;;;;;;;26.72;35.39;99408.41;4956896;28;20067;-69
2022/06/24 07:38:20;;;;;;;0.60;0.60;;;;;;;26.69;35.67;99410.41;4956723;29;20043;-69
2022/06/24 07:40:51;;;;;;;;;;;;;;;26.69;35.61;99397.31;4957212;28;20214;-69
2022/06/24 07:43:20;;;;;;;0.73;0.73;;;;;;;26.77;35.34;99398.47;4956703;29;20373;-69
2022/06/24 07:45:49;;;;;;;0.50;0.50;;;;;;;26.83;35.60;99394.56;4956363;28;20118;-70
2022/06/24 07:48:19;;;;;;;0.40;0.40;;;;;;;26.93;35.56;99392.97;4956278;29;20134;-68
2022/06/24 07:50:48;;;;;;;1.00;0.82;;;;;;;27.05;35.59;99394.69;4956387;28;20039;-68
2022/06/24 07:53:17;;;;;;;0.68;0.60;;;;;;;27.11;35.51;99384.59;4955849;29;20055;-68
2022/06/24 07:58:25;;;;;;;;;;;;;;;27.32;36.37;99387.44;4956337;28;20070;-71
2022/06/24 08:00:53;;;;;;;0.70;0.70;;;;;;;27.47;35.28;99390.75;4956045;28;19985;-68
2022/06/24 08:03:24;;;;;;;0.52;0.52;;;;;;;27.53;34.80;99385.88;4955603;29;20290;-67
2022/06/24 08:05:54;;;;;;;0.73;0.73;;;;;;;27.63;35.08;99381.59;4953485;29;20047;-68
2022/06/24 08:08:24;;;;;;;1.02;0.82;;;;;;;27.57;34.65;99382.06;4955429;29;20082;-69
2022/06/24 08:10:53;;;;;;;0.45;0.45;;;;;;;27.71;34.70;99379.25;4956233;28;20058;-69
2022/06/24 08:13:22;;;;;;;0.85;0.75;;;;;;;27.67;34.79;99380.41;4955619;29;20071;-70
2022/06/24 08:15:51;;;;;;;0.60;0.60;;;;;;;27.52;35.17;99389.44;4955848;29;20047;-69
2022/06/24 08:18:20;;;;;;;0.55;0.50;;;;;;;27.35;34.10;99381.13;4955765;29;20051;-70
2022/06/24 08:20:50;;;;;;;0.50;0.50;;;;;;;27.28;34.74;99375.50;4955642;29;20047;-71
2022/06/24 08:23:20;;;;;;;0.47;0.47;;;;;;;27.24;34.79;99374.88;4955960;29;20519;-70
2022/06/24 08:25:48;;;;;;;0.63;0.63;;;;;;;27.28;35.04;99373.72;4955395;29;20048;-70
2022/06/24 08:28:17;;;;;;;;;;;;;;;27.38;34.55;99376.50;4955941;29;20039;-73
2022/06/24 08:30:51;;;;;;;1.58;1.17;;;;;;;27.52;34.60;99368.44;4955689;29;20028;-72
2022/06/24 08:33:20;;;;;;;0.73;0.73;;;;;;;27.72;34.86;99369.56;4955427;29;20057;-70
2022/06/24 08:35:50;;;;;;;2.55;1.00;;;;;;;27.78;34.69;99377.84;4955882;29;20066;-70
2022/06/24 08:38:19;;;;;;;2.47;1.50;;;;;;;27.84;34.09;99369.47;4955508;29;20048;-72
2022/06/24 08:40:49;;;;;;;0.50;0.50;;;;;;;27.74;33.38;99370.28;4955690;29;20537;-73
2022/06/24 08:43:21;;;;;;;0.80;0.60;;;;;;;27.73;34.20;99377.34;4955353;29;20055;-69
2022/06/24 08:45:51;;;;;;;0.50;0.50;;;;;;;27.89;34.07;99372.59;4955790;29;20051;-70
2022/06/24 08:48:20;;;;;;;0.77;0.77;;;;;;;28.14;34.32;99368.09;4955547;29;20055;-73
2022/06/24 08:50:51;;;;;;;0.60;0.60;;;;;;;28.28;33.37;99360.81;4955648;29;20450;-73
2022/06/24 08:53:22;;;;;;;0.57;0.57;;;;;;;28.36;33.13;99368.91;4955545;29;20468;-70
2022/06/24 08:55:52;;;;;;;1.23;1.13;;;;;;;28.54;33.27;99367.47;4955256;29;20504;-71
2022/06/24 08:58:20;;;;;;;0.85;0.85;;;;;;;28.64;32.29;99358.88;4955538;29;20070;-72
2022/06/24 09:00:50;;;;;;;0.50;0.50;;;;;;;28.86;32.29;99372.81;4955159;29;20035;-72
2022/06/24 09:03:18;;;;;;;0.70;0.70;;;;;;;29.13;32.35;99362.66;4955146;29;20044;-74
2022/06/24 09:05:48;;;;;;;0.52;0.52;;;;;;;29.29;32.48;99364.09;4955046;29;20442;-71
2022/06/24 09:08:18;;;;;;;1.23;1.13;;;;;;;29.41;32.03;99356.00;4955003;29;20063;-72
2022/06/24 09:11:06;;;;;;;0.68;0.68;;;;;;;29.42;31.35;99367.38;4955352;29;20054;-72
2022/06/24 09:13:46;;;;;;;0.52;0.52;;;;;;;29.44;31.30;99370.72;4955237;29;20039;-72
2022/06/24 09:16:19;;;;;;;0.52;0.52;;;;;;;29.10;31.28;99367.38;4955443;29;20051;-72
2022/06/24 09:18:52;;;;;;;1.10;1.00;;;;;;;28.92;31.80;99369.69;4938414;29;20055;-73
2022/06/24 09:21:23;;;;;;;0.65;0.65;;;;;;;28.90;31.85;99363.72;4955198;29;20048;-72
2022/06/24 09:23:56;;;;;;;0.70;0.60;;;;;;;28.83;31.94;99359.09;4956744;28;20051;-69
2022/06/24 09:26:35;;;;;;;0.68;0.68;;;;;;;28.79;31.68;99366.41;4958965;29;20147;-71
2022/06/24 09:29:05;;;;;;;0.52;0.52;;;;;;;28.89;31.66;99369.94;4959268;29;20061;-72
2022/06/24 09:31:34;;;;;;;0.40;0.40;;;;;;;28.93;31.08;99355.59;4958068;29;20051;-69
2022/06/24 09:34:09;;;;;;;0.88;0.70;;;;;;;28.86;31.32;99364.94;4958713;29;20054;-73
2022/06/24 09:36:48;;;;;;;0.68;0.50;;;;;;;28.70;31.46;99369.72;4959064;29;20098;-71
2022/06/24 09:39:36;;;;;;;1.20;0.80;;;;;;;28.70;31.69;99359.22;4958998;29;20051;-70
2022/06/24 09:42:05;;;;;;;0.52;0.52;;;;;;;28.85;31.82;99358.00;4958991;29;20047;-71
2022/06/24 09:44:45;;;;;;;0.82;0.80;;;;;;;29.03;31.86;99364.38;4941990;29;20047;-72
2022/06/24 09:47:15;;;;;;;0.55;0.55;;;;;;;29.14;31.54;99361.72;4957481;29;20043;-75
2022/06/24 09:49:57;;;;;;;0.85;0.85;;;;;;;29.11;31.28;99359.34;4958842;29;20142;-73
2022/06/24 09:52:26;;;;;;;0.65;0.65;;;;;;;29.11;31.55;99364.59;4958524;29;20055;-71
2022/06/24 09:54:57;;;;;;;0.52;0.52;;;;;;;29.17;31.53;99358.84;4958419;29;20102;-71
2022/06/24 09:57:26;;;;;;;0.60;0.60;;;;;;;29.14;31.12;99359.09;4958508;29;20061;-73
2022/06/24 10:02:34;;;;;;;0.80;0.80;;;;;;;29.09;31.96;99356.00;4958694;29;20051;-71
2022/06/24 10:05:08;;;;;;;0.50;0.50;;;;;;;29.07;31.50;99342.16;4957446;29;20043;-71
2022/06/24 10:07:38;;;;;;;0.70;0.70;;;;;;;29.10;31.35;99344.53;4958653;29;20057;-72
2022/06/24 10:10:09;;;;;;;1.67;1.15;;;;;;;29.14;31.47;99340.69;4958060;29;20063;-72
2022/06/24 10:12:44;;;;;;;0.40;0.40;;;;;;;29.11;31.01;99338.31;4958717;29;20043;-71
2022/06/24 10:15:16;;;;;;;0.50;0.50;;;;;;;29.19;31.48;99345.59;4958056;29;20102;-72
2022/06/24 10:17:47;;;;;;;0.47;0.47;;;;;;;29.18;31.01;99334.25;4958147;29;20051;-72
2022/06/24 10:20:20;;;;;;;2.20;0.60;;;;;;;29.28;31.44;99329.06;4958331;29;20505;-72
2022/06/24 10:23:01;;;;;;;0.40;0.40;;;;;;;29.47;31.12;99333.59;4958285;29;20511;-69
2022/06/24 10:25:51;;;;;;;2.35;1.58;;;;;;;29.55;30.74;99331.16;4957955;29;20051;-72
2022/06/24 10:28:22;;;;;;;0.65;0.57;;;;;;;29.65;30.49;99316.28;4957938;29;20043;-71
2022/06/24 10:30:58;;;;;;;0.50;0.50;;;;;;;29.67;30.80;99320.44;4958233;29;20090;-72
2022/06/24 10:33:30;;;;;;;0.50;0.50;;;;;;;29.61;30.16;99309.63;4957879;29;20058;-70
2022/06/24 10:36:01;;;;;;;1.20;1.10;;;;;;;29.70;30.41;99303.56;4956563;28;20120;-71
2022/06/24 10:38:38;;;;;;;1.20;0.82;;;;;;;29.72;29.88;99304.28;4957712;29;20078;-71
2022/06/24 10:41:10;;;;;;;0.77;0.77;;;;;;;29.77;29.88;99299.47;4957702;29;20054;-71
2022/06/24 10:43:45;;;;;;;0.65;0.65;;;;;;;29.74;29.82;99300.53;4957687;29;20131;-73
2022/06/24 10:46:18;;;;;;;0.60;0.60;;;;;;;29.69;30.15;99302.72;4957613;29;20051;-72
2022/06/24 10:49:01;;;;;;;0.52;0.52;;;;;;;29.62;30.53;99295.50;4957810;29;20047;-69
2022/06/24 10:51:32;;;;;;;0.60;0.60;;;;;;;29.63;30.83;99294.53;4957457;29;20085;-73
2022/06/24 10:54:13;;;;;;;0.50;0.50;;;;;;;29.65;30.10;99282.06;4957645;29;20110;-71
2022/06/24 10:56:44;;;;;;;0.60;0.60;;;;;;;29.64;30.34;99296.19;4957426;29;20142;-70
2022/06/24 10:59:20;;;;;;;1.45;0.75;;;;;;;29.85;30.36;99292.59;4956227;29;20051;-72
2022/06/24 11:01:51;;;;;;;0.70;0.70;;;;;;;29.66;29.90;99281.09;4940041;29;20098;-69
2022/06/24 11:04:25;;;;;;;1.05;0.93;;;;;;;29.86;30.48;99264.47;4940200;29;20055;-70
2022/06/24 11:07:09;;;;;;;0.85;0.68;;;;;;;30.07;30.83;99275.75;4957495;29;20070;-71
2022/06/24 11:09:41;;;;;;;0.40;0.40;;;;;;;30.12;30.40;99270.94;4956876;29;20055;-72
2022/06/24 11:12:29;;;;;;;0.65;0.65;;;;;;;30.26;30.23;99265.28;4957490;29;20051;-72
2022/06/24 11:15:00;;;;;;;;;;;;;;;30.13;29.51;99269.97;4957709;29;20051;-71
2022/06/24 11:17:30;;;;;;;1.33;0.85;;;;;;;29.96;29.97;99270.59;4957090;29;19958;-70
2022/06/24 11:20:00;;;;;;;0.50;0.50;;;;;;;30.04;30.38;99260.25;4956894;29;20146;-70
2022/06/24 11:22:30;;;;;;;0.68;0.60;;;;;;;30.07;29.08;99262.59;4957151;29;20129;-71
2022/06/24 11:25:03;;;;;;;0.70;0.70;;;;;;;30.03;29.25;99268.25;4956804;29;20062;-71
2022/06/24 11:27:36;;;;;;;0.80;0.80;;;;;;;30.03;29.35;99268.25;4956802;29;20062;-73
2022/06/24 11:30:08;;;;;;;0.50;0.50;;;;;;;30.20;29.43;99265.00;4956746;29;20062;-73
2022/06/24 11:32:51;;;;;;;1.65;1.05;;;;;;;30.19;29.27;99258.88;4939804;29;20051;-73
2022/06/24 11:35:21;;;;;;;0.60;0.60;;;;;;;30.22;28.93;99258.63;4956563;29;20043;-72
2022/06/24 11:37:51;;;;;;;0.80;0.80;;;;;;;30.30;28.73;99260.59;4956593;29;20054;-73
2022/06/24 11:40:36;;;;;;;0.60;0.60;;;;;;;30.44;29.04;99261.06;4939254;29;20039;-71
2022/06/24 11:43:07;;;;;;;0.47;0.47;;;;;;;30.44;28.69;99253.16;4956621;29;20075;-72
2022/06/24 11:45:39;;;;;;;0.50;0.50;;;;;;;30.50;28.73;99263.13;4956479;28;20048;-73
2022/06/24 11:48:10;;;;;;;0.40;0.40;;;;;;;30.58;28.77;99259.81;4956162;29;20494;-72
2022/06/24 11:50:48;;;;;;;0.60;0.60;;;;;;;30.63;28.81;99259.41;4956295;29;20493;-72
2022/06/24 11:53:17;;;;;;;0.68;0.68;;;;;;;30.59;28.72;99253.59;4956313;29;20090;-72
2022/06/24 11:55:55;;;;;;;0.65;0.65;;;;;;;30.74;28.66;99243.47;4938673;29;20101;-71
2022/06/24 11:58:24;;;;;;;0.55;0.55;;;;;;;30.61;28.27;99243.72;4953712;29;20160;-73
2022/06/24 12:00:55;;;;;;;0.60;0.60;;;;;;;30.66;28.50;99256.50;4955952;28;20043;-72
2022/06/24 12:03:25;;;;;;;0.68;0.68;;;;;;;30.66;28.41;99235.41;4939160;29;20067;-70
2022/06/24 12:05:55;;;;;;;0.63;0.60;;;;;;;30.67;28.31;99239.69;4956273;29;20084;-69
2022/06/24 12:08:25;;;;;;;0.52;0.52;;;;;;;30.73;28.41;99236.53;4955646;29;20063;-71